X  Stänga Metar väderdata för luftfart        EDDH Flugplatz Hohn Airport
Temperatur
46°F Temperatur
45°F Daggpunkt
93% Fuktighet



Vind
2 MPH
4 KM/T
1 M/S
2 KTS



-1°
VRB
Nuvarande omständigheter

Partly Cloudy Delvis molnigt
Tryck 997 (hPa) - 29.44 (inHg)
Synlighet 6 (mil) - 10 (km)
Flygplats
Flygplatskod EDDH

Plats: Flugplatz Hohn Airport
Distans: 40 (mi)

Metar:
METAR EDDH 281820Z AUTO VRB02KT 9999 SCT028 08/07 Q0997 TEMPO 2000 BCFG

Tid: 28-09-2022 20:20 CEST